Airport View

Enter AWOS ICAO identifier for current METAR.

ex. KFNL

KVES 212335Z AUTO 24005KT 7SM CLR 26/09 A3015 RMK AO2

21 Sep 2019 23:42

Frequency: 125.9

Phone: 937-526-3154

Other Area AWOS: KAXV - KDAY - KRID - KFFO

TAF KDAY 211735Z 2118/2218 14010KT P6SM SCT050 FM212000 19008KT P6SM SCT050 FM212300 19006KT P6SM SCT250 FM221300 20010KT P6SM SCT250 FM221600 21014G22KT P6SM FEW060 SCT250